JST279 NZWN-NZQN
Flight info
| Callsign | JST279 |
|---|---|
| Flight time | 1h 11m |
| Altitude | 36000 |
| Route | SABDA Y622 MESIX H159 CH Y266 ELRUV |
| Aircraft | A321/M-SDE3FGHIRWY/LB1 |
Departure
| Time | 2026-05-06 02:16 |
|---|---|
| Airport | Wellington International Airport (NZWN) |
Arrival
| Time | 2026-05-06 03:28 |
|---|---|
| Airport | Queenstown Airport (NZQN) |
| Time | Latitude | Longitude | Altitude | Speed | Heading |
|---|---|---|---|---|---|
| 2026-05-06 01:42 | -41.32864 | 174.81000 | 27 ft | 0 kts | 53° |
| 2026-05-06 02:06 | -41.32871 | 174.80985 | 26 ft | 3 kts | 65° |
| 2026-05-06 02:06 | -41.32879 | 174.80962 | 26 ft | 3 kts | 65° |
| 2026-05-06 02:06 | -41.32887 | 174.80940 | 44 ft | 3 kts | 65° |
| 2026-05-06 02:06 | -41.32895 | 174.80917 | 26 ft | 3 kts | 76° |
| 2026-05-06 02:07 | -41.32893 | 174.80893 | 26 ft | 3 kts | 139° |
| 2026-05-06 02:07 | -41.32878 | 174.80880 | 26 ft | 3 kts | 161° |
| 2026-05-06 02:07 | -41.32870 | 174.80877 | 22 ft | 0 kts | 176° |
| 2026-05-06 02:09 | -41.32872 | 174.80877 | 26 ft | 1 kts | 176° |
| 2026-05-06 02:10 | -41.32905 | 174.80880 | 26 ft | 6 kts | 179° |
| 2026-05-06 02:10 | -41.32955 | 174.80876 | 26 ft | 7 kts | 185° |
| 2026-05-06 02:10 | -41.32971 | 174.80840 | 26 ft | 7 kts | 250° |
| 2026-05-06 02:10 | -41.33000 | 174.80798 | 26 ft | 7 kts | 193° |
| 2026-05-06 02:11 | -41.33052 | 174.80792 | 26 ft | 9 kts | 182° |
| 2026-05-06 02:11 | -41.33117 | 174.80788 | 26 ft | 10 kts | 182° |
| 2026-05-06 02:11 | -41.33193 | 174.80784 | 26 ft | 12 kts | 182° |
| 2026-05-06 02:11 | -41.33270 | 174.80780 | 26 ft | 11 kts | 182° |
| 2026-05-06 02:12 | -41.33349 | 174.80775 | 26 ft | 12 kts | 183° |
| 2026-05-06 02:12 | -41.33424 | 174.80771 | 26 ft | 9 kts | 182° |
| 2026-05-06 02:12 | -41.33480 | 174.80767 | 26 ft | 5 kts | 183° |
| 2026-05-06 02:12 | -41.33499 | 174.80765 | 26 ft | 1 kts | 185° |
| 2026-05-06 02:13 | -41.33521 | 174.80761 | 26 ft | 5 kts | 192° |
| 2026-05-06 02:13 | -41.33560 | 174.80723 | 26 ft | 9 kts | 227° |
| 2026-05-06 02:13 | -41.33578 | 174.80650 | 26 ft | 7 kts | 260° |
| 2026-05-06 02:13 | -41.33569 | 174.80631 | 26 ft | 3 kts | 333° |
| 2026-05-06 02:14 | -41.33558 | 174.80630 | 26 ft | 0 kts | 5° |
| 2026-05-06 02:15 | -41.33517 | 174.80635 | 26 ft | 28 kts | 5° |
| 2026-05-06 02:16 | -41.33067 | 174.80664 | 27 ft | 99 kts | 3° |
| 2026-05-06 02:16 | -41.32224 | 174.80732 | 300 ft | 127 kts | 3° |
| 2026-05-06 02:16 | -41.31347 | 174.80817 | 970 ft | 128 kts | 0° |
| 2026-05-06 02:16 | -41.30468 | 174.80882 | 1463 ft | 126 kts | 355° |
| 2026-05-06 02:17 | -41.29584 | 174.80932 | 1850 ft | 134 kts | 353° |
| 2026-05-06 02:17 | -41.28596 | 174.80976 | 2006 ft | 153 kts | 354° |
| 2026-05-06 02:17 | -41.27455 | 174.80997 | 2135 ft | 173 kts | 347° |
| 2026-05-06 02:17 | -41.26257 | 174.80657 | 2529 ft | 179 kts | 341° |
| 2026-05-06 02:18 | -41.25039 | 174.80227 | 2990 ft | 183 kts | 339° |
| 2026-05-06 02:18 | -41.23806 | 174.79779 | 3475 ft | 183 kts | 339° |
| 2026-05-06 02:18 | -41.22587 | 174.79336 | 4008 ft | 185 kts | 340° |
| 2026-05-06 02:18 | -41.21321 | 174.78879 | 4304 ft | 197 kts | 341° |
| 2026-05-06 02:19 | -41.19985 | 174.78403 | 4944 ft | 200 kts | 341° |
| 2026-05-06 02:19 | -41.18636 | 174.77929 | 5537 ft | 202 kts | 340° |
| 2026-05-06 02:19 | -41.17273 | 174.77452 | 6010 ft | 206 kts | 340° |
| 2026-05-06 02:19 | -41.15900 | 174.76880 | 6563 ft | 207 kts | 328° |
| 2026-05-06 02:20 | -41.14472 | 174.73766 | 7594 ft | 212 kts | 271° |
| 2026-05-06 02:20 | -41.14905 | 174.71865 | 8103 ft | 225 kts | 240° |
| 2026-05-06 02:20 | -41.16082 | 174.70426 | 8620 ft | 236 kts | 221° |
| 2026-05-06 02:21 | -41.17465 | 174.69222 | 9141 ft | 243 kts | 209° |
| 2026-05-06 02:21 | -41.19145 | 174.68693 | 9580 ft | 259 kts | 186° |
| 2026-05-06 02:21 | -41.21026 | 174.68921 | 9720 ft | 283 kts | 176° |
| 2026-05-06 02:21 | -41.23054 | 174.69270 | 9960 ft | 303 kts | 177° |
| 2026-05-06 02:22 | -41.25202 | 174.69641 | 10257 ft | 321 kts | 176° |
| 2026-05-06 02:22 | -41.27493 | 174.70037 | 10374 ft | 343 kts | 175° |
| 2026-05-06 02:22 | -41.29928 | 174.70457 | 10632 ft | 359 kts | 175° |
| 2026-05-06 02:22 | -41.32430 | 174.70885 | 11121 ft | 366 kts | 176° |
| 2026-05-06 02:23 | -41.34967 | 174.71305 | 11732 ft | 369 kts | 179° |
| 2026-05-06 02:23 | -41.37519 | 174.71201 | 12327 ft | 366 kts | 191° |
| 2026-05-06 02:23 | -41.40045 | 174.70640 | 12916 ft | 370 kts | 192° |
| 2026-05-06 02:23 | -41.42590 | 174.70055 | 13531 ft | 373 kts | 195° |
| 2026-05-06 02:24 | -41.45156 | 174.69460 | 14149 ft | 375 kts | 195° |
| 2026-05-06 02:24 | -41.47740 | 174.68848 | 14691 ft | 378 kts | 195° |
| 2026-05-06 02:24 | -41.50246 | 174.67827 | 15174 ft | 377 kts | 206° |
| 2026-05-06 02:24 | -41.52588 | 174.66260 | 15730 ft | 378 kts | 212° |
| 2026-05-06 02:25 | -41.54920 | 174.64622 | 16315 ft | 380 kts | 212° |
| 2026-05-06 02:25 | -41.57273 | 174.62982 | 16861 ft | 383 kts | 210° |
| 2026-05-06 02:25 | -41.59645 | 174.61335 | 17401 ft | 386 kts | 211° |
| 2026-05-06 02:25 | -41.62035 | 174.59673 | 17937 ft | 389 kts | 211° |
| 2026-05-06 02:26 | -41.64449 | 174.57994 | 18470 ft | 393 kts | 211° |
| 2026-05-06 02:26 | -41.66880 | 174.56299 | 18923 ft | 396 kts | 212° |
| 2026-05-06 02:26 | -41.69293 | 174.54606 | 19410 ft | 397 kts | 212° |
| 2026-05-06 02:26 | -41.71742 | 174.52885 | 19931 ft | 398 kts | 210° |
| 2026-05-06 02:27 | -41.74199 | 174.51165 | 20460 ft | 399 kts | 212° |
| 2026-05-06 02:27 | -41.76660 | 174.49442 | 20989 ft | 400 kts | 212° |
| 2026-05-06 02:27 | -41.79123 | 174.47698 | 21523 ft | 400 kts | 214° |
| 2026-05-06 02:27 | -41.81442 | 174.45664 | 22020 ft | 399 kts | 217° |
| 2026-05-06 02:28 | -41.83744 | 174.43571 | 22538 ft | 400 kts | 217° |
| 2026-05-06 02:28 | -41.86053 | 174.41476 | 23015 ft | 401 kts | 217° |
| 2026-05-06 02:28 | -41.88370 | 174.39375 | 23465 ft | 403 kts | 217° |
| 2026-05-06 02:28 | -41.90690 | 174.37268 | 23885 ft | 404 kts | 216° |
| 2026-05-06 02:29 | -41.93017 | 174.35150 | 24303 ft | 404 kts | 215° |
| 2026-05-06 02:29 | -41.95340 | 174.33029 | 24720 ft | 404 kts | 216° |
| 2026-05-06 02:29 | -41.97662 | 174.30904 | 25195 ft | 402 kts | 216° |
| 2026-05-06 02:29 | -41.99968 | 174.28793 | 25669 ft | 401 kts | 217° |
| 2026-05-06 02:30 | -42.02276 | 174.26676 | 26055 ft | 404 kts | 216° |
| 2026-05-06 02:30 | -42.04612 | 174.24537 | 26340 ft | 408 kts | 216° |
| 2026-05-06 02:30 | -42.06965 | 174.22382 | 26683 ft | 410 kts | 216° |
| 2026-05-06 02:30 | -42.09327 | 174.20211 | 27044 ft | 412 kts | 216° |
| 2026-05-06 02:31 | -42.11701 | 174.18027 | 27423 ft | 414 kts | 216° |
| 2026-05-06 02:31 | -42.14082 | 174.15841 | 27798 ft | 415 kts | 216° |
| 2026-05-06 02:31 | -42.16472 | 174.13645 | 28180 ft | 416 kts | 216° |
| 2026-05-06 02:31 | -42.18869 | 174.11440 | 28555 ft | 418 kts | 216° |
| 2026-05-06 02:32 | -42.21274 | 174.09227 | 28923 ft | 419 kts | 217° |
| 2026-05-06 02:32 | -42.23684 | 174.07006 | 29284 ft | 420 kts | 217° |
| 2026-05-06 02:32 | -42.26102 | 174.04774 | 29641 ft | 422 kts | 217° |
| 2026-05-06 02:32 | -42.28526 | 174.02534 | 29960 ft | 423 kts | 217° |
| 2026-05-06 02:33 | -42.30928 | 174.00314 | 30283 ft | 425 kts | 217° |
| 2026-05-06 02:33 | -42.32578 | 173.98783 | 30480 ft | 426 kts | 217° |
| 2026-05-06 02:33 | -42.38264 | 173.93491 | 31189 ft | 428 kts | 217° |
| 2026-05-06 02:34 | -42.40719 | 173.91205 | 31507 ft | 428 kts | 217° |
| 2026-05-06 02:34 | -42.43165 | 173.88929 | 31938 ft | 425 kts | 218° |
| 2026-05-06 02:34 | -42.45599 | 173.86674 | 32395 ft | 422 kts | 218° |
| 2026-05-06 02:34 | -42.48016 | 173.84435 | 32832 ft | 420 kts | 218° |
| 2026-05-06 02:35 | -42.50418 | 173.82203 | 33260 ft | 417 kts | 218° |
| 2026-05-06 02:35 | -42.52803 | 173.79984 | 33690 ft | 415 kts | 218° |
| 2026-05-06 02:35 | -42.55169 | 173.77771 | 34090 ft | 413 kts | 218° |
| 2026-05-06 02:35 | -42.57524 | 173.75564 | 34198 ft | 408 kts | 218° |
| 2026-05-06 02:36 | -42.59840 | 173.73399 | 34210 ft | 401 kts | 218° |
| 2026-05-06 02:36 | -42.63644 | 173.69839 | 34212 ft | 398 kts | 219° |
| 2026-05-06 02:37 | -42.68194 | 173.65560 | 34215 ft | 398 kts | 218° |
| 2026-05-06 02:37 | -42.72745 | 173.61278 | 34212 ft | 398 kts | 219° |
| 2026-05-06 02:38 | -42.77289 | 173.56989 | 34206 ft | 398 kts | 219° |
| 2026-05-06 02:38 | -42.81841 | 173.52701 | 34206 ft | 398 kts | 219° |
| 2026-05-06 02:39 | -42.86397 | 173.48404 | 34218 ft | 399 kts | 219° |
| 2026-05-06 02:39 | -42.90953 | 173.44082 | 34215 ft | 399 kts | 219° |
| 2026-05-06 02:40 | -42.95519 | 173.39761 | 34214 ft | 399 kts | 219° |
| 2026-05-06 02:40 | -43.00078 | 173.35426 | 34210 ft | 397 kts | 219° |
| 2026-05-06 02:41 | -43.04510 | 173.31202 | 34211 ft | 388 kts | 220° |
| 2026-05-06 02:41 | -43.08915 | 173.26988 | 34193 ft | 386 kts | 220° |
| 2026-05-06 02:42 | -43.12658 | 173.21897 | 34194 ft | 377 kts | 237° |
| 2026-05-06 02:42 | -43.15782 | 173.16116 | 34193 ft | 378 kts | 236° |
| 2026-05-06 02:43 | -43.18911 | 173.10336 | 34197 ft | 378 kts | 237° |
| 2026-05-06 02:43 | -43.22037 | 173.04550 | 34211 ft | 377 kts | 237° |
| 2026-05-06 02:44 | -43.25160 | 172.98774 | 34210 ft | 377 kts | 237° |
| 2026-05-06 02:44 | -43.28275 | 172.92989 | 34207 ft | 376 kts | 237° |
| 2026-05-06 02:45 | -43.31370 | 172.87197 | 34205 ft | 376 kts | 237° |
| 2026-05-06 02:45 | -43.34467 | 172.81402 | 34197 ft | 376 kts | 238° |
| 2026-05-06 02:46 | -43.37567 | 172.75607 | 34192 ft | 376 kts | 237° |
| 2026-05-06 02:46 | -43.40668 | 172.69812 | 34200 ft | 376 kts | 238° |
| 2026-05-06 02:47 | -43.43747 | 172.64043 | 34188 ft | 377 kts | 238° |
| 2026-05-06 02:47 | -43.46840 | 172.58216 | 34188 ft | 377 kts | 238° |
| 2026-05-06 02:48 | -43.49926 | 172.52380 | 34184 ft | 377 kts | 238° |
| 2026-05-06 02:48 | -43.52614 | 172.46235 | 34195 ft | 374 kts | 243° |
| 2026-05-06 02:49 | -43.55237 | 172.40039 | 34213 ft | 374 kts | 243° |
| 2026-05-06 02:49 | -43.57854 | 172.33851 | 34222 ft | 373 kts | 244° |
| 2026-05-06 02:50 | -43.60453 | 172.27683 | 34214 ft | 372 kts | 244° |
| 2026-05-06 02:50 | -43.63039 | 172.21497 | 34204 ft | 372 kts | 244° |
| 2026-05-06 02:51 | -43.65613 | 172.15307 | 34195 ft | 371 kts | 244° |
| 2026-05-06 02:51 | -43.68189 | 172.09129 | 34193 ft | 371 kts | 244° |
| 2026-05-06 02:52 | -43.70770 | 172.02954 | 34207 ft | 371 kts | 244° |
| 2026-05-06 02:52 | -43.73336 | 171.96781 | 34204 ft | 370 kts | 244° |
| 2026-05-06 02:53 | -43.75890 | 171.90624 | 34209 ft | 369 kts | 245° |
| 2026-05-06 02:53 | -43.78434 | 171.84473 | 34200 ft | 368 kts | 245° |
| 2026-05-06 02:54 | -43.80972 | 171.78330 | 34193 ft | 367 kts | 245° |
| 2026-05-06 02:54 | -43.83502 | 171.72190 | 34185 ft | 367 kts | 245° |
| 2026-05-06 02:55 | -43.86076 | 171.66071 | 34186 ft | 368 kts | 244° |
| 2026-05-06 02:55 | -43.88681 | 171.60021 | 34187 ft | 368 kts | 245° |
| 2026-05-06 02:56 | -43.91296 | 171.53918 | 34203 ft | 368 kts | 245° |
| 2026-05-06 02:56 | -43.93901 | 171.47804 | 34192 ft | 368 kts | 245° |
| 2026-05-06 02:57 | -43.96498 | 171.41673 | 34180 ft | 370 kts | 245° |
| 2026-05-06 02:57 | -43.99119 | 171.35456 | 34159 ft | 382 kts | 245° |
| 2026-05-06 02:58 | -44.01815 | 171.29065 | 34158 ft | 384 kts | 245° |
| 2026-05-06 02:58 | -44.04525 | 171.22645 | 34159 ft | 386 kts | 245° |
| 2026-05-06 02:59 | -44.07231 | 171.16202 | 34154 ft | 386 kts | 246° |
| 2026-05-06 02:59 | -44.09933 | 171.09746 | 34164 ft | 386 kts | 246° |
| 2026-05-06 03:00 | -44.12636 | 171.03276 | 34174 ft | 387 kts | 246° |
| 2026-05-06 03:00 | -44.15339 | 170.96799 | 34170 ft | 387 kts | 246° |
| 2026-05-06 03:01 | -44.18038 | 170.90327 | 34178 ft | 386 kts | 246° |
| 2026-05-06 03:01 | -44.20733 | 170.83846 | 34165 ft | 387 kts | 246° |
| 2026-05-06 03:02 | -44.23460 | 170.77251 | 34164 ft | 397 kts | 246° |
| 2026-05-06 03:02 | -44.26236 | 170.70554 | 34162 ft | 400 kts | 246° |
| 2026-05-06 03:03 | -44.28994 | 170.63870 | 34164 ft | 400 kts | 246° |
| 2026-05-06 03:03 | -44.31756 | 170.57131 | 34174 ft | 400 kts | 246° |
| 2026-05-06 03:04 | -44.34537 | 170.50349 | 34095 ft | 400 kts | 246° |
| 2026-05-06 03:04 | -44.35923 | 170.46978 | 33808 ft | 400 kts | 246° |
| 2026-05-06 03:04 | -44.37291 | 170.43637 | 33543 ft | 402 kts | 246° |
| 2026-05-06 03:04 | -44.38679 | 170.40236 | 33274 ft | 404 kts | 246° |
| 2026-05-06 03:05 | -44.40078 | 170.36811 | 32840 ft | 407 kts | 246° |
| 2026-05-06 03:05 | -44.41483 | 170.33360 | 32078 ft | 410 kts | 246° |
| 2026-05-06 03:05 | -44.42896 | 170.29883 | 31322 ft | 413 kts | 246° |
| 2026-05-06 03:05 | -44.44319 | 170.26369 | 30485 ft | 418 kts | 246° |
| 2026-05-06 03:06 | -44.45764 | 170.22808 | 29562 ft | 423 kts | 246° |
| 2026-05-06 03:06 | -44.47222 | 170.19222 | 28677 ft | 425 kts | 246° |
| 2026-05-06 03:06 | -44.48684 | 170.15616 | 27764 ft | 427 kts | 245° |
| 2026-05-06 03:06 | -44.50155 | 170.11981 | 26819 ft | 431 kts | 245° |
| 2026-05-06 03:07 | -44.51646 | 170.08303 | 25764 ft | 438 kts | 245° |
| 2026-05-06 03:07 | -44.53157 | 170.04566 | 24905 ft | 441 kts | 244° |
| 2026-05-06 03:07 | -44.54661 | 170.00849 | 24279 ft | 437 kts | 244° |
| 2026-05-06 03:07 | -44.56152 | 169.97148 | 23547 ft | 435 kts | 244° |
| 2026-05-06 03:08 | -44.57632 | 169.93459 | 22798 ft | 432 kts | 244° |
| 2026-05-06 03:08 | -44.59095 | 169.89809 | 22109 ft | 427 kts | 244° |
| 2026-05-06 03:08 | -44.60544 | 169.86196 | 21446 ft | 423 kts | 244° |
| 2026-05-06 03:08 | -44.61980 | 169.82612 | 20770 ft | 419 kts | 243° |
| 2026-05-06 03:09 | -44.63399 | 169.79067 | 20104 ft | 415 kts | 243° |
| 2026-05-06 03:09 | -44.64787 | 169.75598 | 19469 ft | 411 kts | 243° |
| 2026-05-06 03:09 | -44.66181 | 169.72105 | 18953 ft | 406 kts | 243° |
| 2026-05-06 03:09 | -44.67536 | 169.68703 | 18831 ft | 392 kts | 244° |
| 2026-05-06 03:10 | -44.68843 | 169.65417 | 18698 ft | 378 kts | 244° |
| 2026-05-06 03:10 | -44.70103 | 169.62247 | 18540 ft | 366 kts | 244° |
| 2026-05-06 03:10 | -44.71331 | 169.59154 | 18139 ft | 360 kts | 244° |
| 2026-05-06 03:10 | -44.72541 | 169.56104 | 17707 ft | 354 kts | 244° |
| 2026-05-06 03:11 | -44.73720 | 169.53134 | 16808 ft | 344 kts | 245° |
| 2026-05-06 03:11 | -44.74875 | 169.50224 | 15818 ft | 337 kts | 245° |
| 2026-05-06 03:11 | -44.76003 | 169.47373 | 14902 ft | 330 kts | 246° |
| 2026-05-06 03:11 | -44.77109 | 169.44564 | 14185 ft | 328 kts | 246° |
| 2026-05-06 03:12 | -44.78206 | 169.41779 | 13788 ft | 323 kts | 247° |
| 2026-05-06 03:12 | -44.79288 | 169.39035 | 13349 ft | 319 kts | 247° |
| 2026-05-06 03:12 | -44.80361 | 169.36314 | 12860 ft | 317 kts | 247° |
| 2026-05-06 03:12 | -44.81420 | 169.33622 | 12543 ft | 308 kts | 248° |
| 2026-05-06 03:13 | -44.82292 | 169.30971 | 12407 ft | 290 kts | 253° |
| 2026-05-06 03:13 | -44.83080 | 169.28442 | 11909 ft | 277 kts | 254° |
| 2026-05-06 03:13 | -44.83849 | 169.25965 | 11148 ft | 277 kts | 255° |
| 2026-05-06 03:13 | -44.84612 | 169.23502 | 10962 ft | 273 kts | 255° |
| 2026-05-06 03:14 | -44.85372 | 169.21039 | 10899 ft | 275 kts | 255° |
| 2026-05-06 03:14 | -44.86126 | 169.18602 | 10891 ft | 266 kts | 255° |
| 2026-05-06 03:14 | -44.86861 | 169.16230 | 10887 ft | 263 kts | 255° |
| 2026-05-06 03:14 | -44.87591 | 169.13869 | 10885 ft | 262 kts | 255° |
| 2026-05-06 03:15 | -44.88317 | 169.11520 | 10761 ft | 261 kts | 256° |
| 2026-05-06 03:15 | -44.89038 | 169.09177 | 10644 ft | 260 kts | 255° |
| 2026-05-06 03:15 | -44.89924 | 169.06923 | 10379 ft | 273 kts | 237° |
| 2026-05-06 03:15 | -44.91583 | 169.05434 | 9996 ft | 300 kts | 204° |
| 2026-05-06 03:16 | -44.93720 | 169.05240 | 9530 ft | 316 kts | 179° |
| 2026-05-06 03:16 | -44.95874 | 169.05744 | 9390 ft | 312 kts | 173° |
| 2026-05-06 03:16 | -44.97972 | 169.06250 | 9245 ft | 299 kts | 178° |
| 2026-05-06 03:16 | -44.99940 | 169.06381 | 9128 ft | 274 kts | 188° |
| 2026-05-06 03:17 | -45.01717 | 169.06023 | 8858 ft | 239 kts | 210° |
| 2026-05-06 03:17 | -45.02855 | 169.04646 | 8439 ft | 202 kts | 252° |
| 2026-05-06 03:17 | -45.03021 | 169.02819 | 7917 ft | 183 kts | 283° |
| 2026-05-06 03:17 | -45.02739 | 169.01105 | 7370 ft | 179 kts | 289° |
| 2026-05-06 03:18 | -45.02391 | 168.99468 | 6954 ft | 167 kts | 290° |
| 2026-05-06 03:18 | -45.02075 | 168.97965 | 6598 ft | 152 kts | 289° |
| 2026-05-06 03:18 | -45.01788 | 168.96557 | 6322 ft | 148 kts | 289° |
| 2026-05-06 03:18 | -45.01515 | 168.95171 | 6088 ft | 146 kts | 289° |
| 2026-05-06 03:19 | -45.01247 | 168.93777 | 5881 ft | 148 kts | 288° |
| 2026-05-06 03:19 | -45.00979 | 168.92373 | 5669 ft | 148 kts | 288° |
| 2026-05-06 03:19 | -45.00713 | 168.90963 | 5450 ft | 148 kts | 289° |
| 2026-05-06 03:19 | -45.00453 | 168.89564 | 5258 ft | 147 kts | 290° |
| 2026-05-06 03:20 | -44.99936 | 168.86748 | 4879 ft | 150 kts | 288° |
| 2026-05-06 03:20 | -44.99677 | 168.85321 | 4651 ft | 150 kts | 288° |
| 2026-05-06 03:20 | -44.99420 | 168.83893 | 4445 ft | 150 kts | 289° |
| 2026-05-06 03:21 | -44.99164 | 168.82473 | 4232 ft | 149 kts | 289° |
| 2026-05-06 03:21 | -44.98907 | 168.81058 | 4289 ft | 149 kts | 289° |
| 2026-05-06 03:21 | -44.98645 | 168.79636 | 4337 ft | 150 kts | 289° |
| 2026-05-06 03:21 | -44.98456 | 168.78182 | 4376 ft | 153 kts | 272° |
| 2026-05-06 03:22 | -44.98824 | 168.76763 | 4357 ft | 160 kts | 232° |
| 2026-05-06 03:22 | -44.99788 | 168.75965 | 4298 ft | 163 kts | 196° |
| 2026-05-06 03:22 | -45.00915 | 168.75732 | 4242 ft | 164 kts | 185° |
| 2026-05-06 03:22 | -45.02056 | 168.75558 | 4164 ft | 165 kts | 186° |
| 2026-05-06 03:23 | -45.03182 | 168.75372 | 4123 ft | 165 kts | 187° |
| 2026-05-06 03:23 | -45.04325 | 168.75165 | 4052 ft | 166 kts | 187° |
| 2026-05-06 03:23 | -45.05446 | 168.74941 | 3987 ft | 163 kts | 189° |
| 2026-05-06 03:23 | -45.06573 | 168.74704 | 3962 ft | 164 kts | 187° |
| 2026-05-06 03:24 | -45.07712 | 168.74522 | 3926 ft | 164 kts | 188° |
| 2026-05-06 03:24 | -45.08722 | 168.73834 | 3814 ft | 163 kts | 228° |
| 2026-05-06 03:24 | -45.09082 | 168.72393 | 3584 ft | 156 kts | 279° |
| 2026-05-06 03:24 | -45.08748 | 168.70981 | 3397 ft | 151 kts | 303° |
| 2026-05-06 03:25 | -45.08266 | 168.69660 | 3149 ft | 151 kts | 298° |
| 2026-05-06 03:25 | -45.07776 | 168.68356 | 2920 ft | 149 kts | 310° |
| 2026-05-06 03:25 | -45.07027 | 168.67386 | 2647 ft | 145 kts | 335° |
| 2026-05-06 03:25 | -45.06073 | 168.67031 | 2464 ft | 143 kts | 0° |
| 2026-05-06 03:26 | -45.05123 | 168.67460 | 2324 ft | 145 kts | 27° |
| 2026-05-06 03:26 | -45.04232 | 168.68163 | 2222 ft | 150 kts | 28° |
| 2026-05-06 03:26 | -45.03383 | 168.69025 | 2008 ft | 152 kts | 43° |
| 2026-05-06 03:26 | -45.02736 | 168.70128 | 1811 ft | 148 kts | 57° |
| 2026-05-06 03:27 | -45.02351 | 168.71467 | 1582 ft | 145 kts | 71° |
| 2026-05-06 03:27 | -45.02113 | 168.72855 | 1324 ft | 145 kts | 73° |
| 2026-05-06 03:27 | -45.01970 | 168.73752 | 1203 ft | 139 kts | 74° |
| 2026-05-06 03:27 | -45.01753 | 168.75137 | 1167 ft | 69 kts | 77° |
| 2026-05-06 03:28 | -45.01696 | 168.75513 | 1166 ft | 34 kts | 78° |
| 2026-05-06 03:28 | -45.01663 | 168.75738 | 1168 ft | 10 kts | 69° |
| 2026-05-06 03:28 | -45.01642 | 168.75805 | 1165 ft | 2 kts | 116° |
| 2026-05-06 03:28 | -45.01654 | 168.75795 | 1166 ft | 2 kts | 236° |
| 2026-05-06 03:29 | -45.01660 | 168.75750 | 1168 ft | 7 kts | 258° |
| 2026-05-06 03:29 | -45.01668 | 168.75697 | 1168 ft | 9 kts | 258° |
| 2026-05-06 03:29 | -45.01682 | 168.75600 | 1165 ft | 12 kts | 257° |
| 2026-05-06 03:29 | -45.01709 | 168.75423 | 1166 ft | 16 kts | 257° |
| 2026-05-06 03:30 | -45.01726 | 168.75315 | 1170 ft | 18 kts | 258° |
| 2026-05-06 03:30 | -45.01752 | 168.75141 | 1167 ft | 19 kts | 258° |
| 2026-05-06 03:30 | -45.01782 | 168.74955 | 1164 ft | 20 kts | 257° |
| 2026-05-06 03:30 | -45.01813 | 168.74756 | 1165 ft | 22 kts | 257° |
| 2026-05-06 03:31 | -45.01846 | 168.74553 | 1167 ft | 20 kts | 257° |
| 2026-05-06 03:31 | -45.01876 | 168.74363 | 1167 ft | 20 kts | 257° |
| 2026-05-06 03:31 | -45.01902 | 168.74188 | 1165 ft | 17 kts | 258° |
| 2026-05-06 03:31 | -45.01930 | 168.74129 | 1164 ft | 6 kts | 203° |
| 2026-05-06 03:32 | -45.01975 | 168.74098 | 1163 ft | 9 kts | 206° |
| 2026-05-06 03:32 | -45.02032 | 168.74064 | 1164 ft | 9 kts | 201° |
| 2026-05-06 03:32 | -45.02089 | 168.74036 | 1163 ft | 7 kts | 203° |
| 2026-05-06 03:32 | -45.02116 | 168.74018 | 1164 ft | 2 kts | 206° |
| 2026-05-06 03:33 | -45.02123 | 168.74014 | 1164 ft | 0 kts | 206° |